Terminal Aerodrome Forecast
Issued by NWS Mt. Holly, NJ

Home | Current Version | Previous Version | Text Only | Print | Product List | Glossary On
Versions: 1 2 3 4 5 6 7 8 9 10 11 12 13 14 15 16 17 18 19
000
FTAK31 PANC 140007 AAA
TAFABE
TAF AMD
PABE 140007Z 1400/1424 24012KT 2SM BR SCT002 BKN015 OVC050
      TEMPO 1400/1404 1/2SM FG BKN002
     FM140900 22004KT 6SM BR SCT015 OVC050
     FM141300 VRB04KT 1SM BR VCFG SCT002 OVC015
     FM141800 01005KT P6SM SCT015 BKN050=

USA.gov is the U.S. government's official web portal to all federal, state and local government web resources and services.